메인 페이지
METAR-TAF:

METAR-TAF

공항 :

애틀랜타, 조지아, 미국

위도: 33-46-39N, 경도: 084-31-28W, 고도: 256m

현재 날씨관측

예보는 1 시간 5분 전, 16:53시(UTC)에 발표되었습니다.
남동6kt
온도 27°C
습도 74%
기압 1022 hPa
시정: 16.1km
고도 2600ft 상공 구름 많음
고도 3700ft 상공 구름 많음
고도 4500ft 상공 흐림

METAR: KFTY 251653Z 13006KT 10SM BKN026 BKN037 OVC045 27/22 A3017 RMK AO2 SLP207 T02720222

시각: 13:58 (17:58 UTC)

예보

예보는 22분 전, 17:36시(UTC)에 발표되었습니다.
예보 대상 시간: 25일 18시부터 26일 18시까지 (UTC)
남동7kt
시정: 10km
고도 2500ft 상공 구름 많음
고도 3500ft 상공 구름 많음
고도 4500ft 상공 흐림
시계 내 소나기
25일 2300시부터 (UTC)
남동6kt
시정: 10km
고도 4500ft 상공 구름 보통
고도 8000ft 상공 구름 많음
시계 내 소나기
26일 0100시부터 (UTC)
여러 방향의 바람 3kt
시정: 10km
고도 4000ft 상공 구름 많음
고도 10000ft 상공 구름 많음
26일 0900시부터 (UTC)
여러 방향의 바람 3kt
시정: 9.7km
고도 1500ft 상공 구름 많음
고도 3000ft 상공 구름 많음
박무
26일 1700시부터 (UTC)
서남서6kt
시정: 10km
고도 3500ft 상공 구름 많음
소나기

TAF: KFTY 251736Z 2518/2618 13007KT P6SM VCSH BKN025 BKN035 OVC045 FM252300 14006KT P6SM VCSH SCT045 BKN080 FM260100 VRB03KT P6SM BKN040 BKN100 FM260900 VRB03KT 6SM BR BKN015 BKN030 FM261700 24006KT P6SM SHRA BKN035

4,000개 이상의 공항 관측 자료 및 예보 (METAR 및 TAF 보고).

지도상에서 검색 가능한 기상관측소가 노란 점과 빨간 점으로 표시되어 있습니다.

기상관측소 명을 보려면 표시 위로 마우스를 이동하세요.

날씨 관측과 예보를 보려면 클릭하세요.

지도 변경 : 확대하려면 엑스 표시가 있는 녹색 버튼, 축소하려면 빼기 표시가 있는 녹색 버튼, 다음 페이지의 지도를 보려면 녹색 화살표를 클릭하세요.


METAR-TAF: